createdAt,value
2023-04-29T00:01:23.246Z,6.56
2023-04-29T00:06:31.174Z,6.42
2023-04-29T00:11:38.523Z,6.27
2023-04-29T00:16:45.959Z,6.19
2023-04-29T00:21:54.756Z,6.14
2023-04-29T00:27:02.579Z,6.09
2023-04-29T00:32:09.871Z,6.10
2023-04-29T00:37:17.122Z,6.13
2023-04-29T00:42:23.081Z,6.16
2023-04-29T00:47:30.621Z,6.16
2023-04-29T00:52:39.455Z,6.07
2023-04-29T00:57:48.790Z,6.04
2023-04-29T01:02:57.225Z,5.98
2023-04-29T01:08:23.304Z,5.80
2023-04-29T01:13:36.929Z,5.68
2023-04-29T01:18:47.915Z,5.60
2023-04-29T01:23:56.580Z,5.53
2023-04-29T01:29:23.303Z,5.50
2023-04-29T01:34:38.714Z,5.47
2023-04-29T01:39:57.868Z,5.38
2023-04-29T01:45:09.999Z,5.37
2023-04-29T01:50:17.516Z,5.45
2023-04-29T01:55:25.919Z,5.55
2023-04-29T02:00:33.349Z,5.61
2023-04-29T02:05:40.363Z,5.59
2023-04-29T02:10:56.511Z,5.60
2023-04-29T02:16:11.914Z,5.67
2023-04-29T02:21:19.067Z,5.75
2023-04-29T02:26:24.993Z,5.81
2023-04-29T02:31:32.877Z,5.90
2023-04-29T02:36:40.122Z,6.00
2023-04-29T02:41:47.428Z,6.17
2023-04-29T02:46:52.896Z,6.29
2023-04-29T02:52:00.192Z,6.40
2023-04-29T02:57:05.687Z,6.47
2023-04-29T03:06:16.300Z,6.63
2023-04-29T03:11:20.331Z,6.67
2023-04-29T03:16:24.982Z,6.72
2023-04-29T03:21:29.431Z,6.78
2023-04-29T03:26:33.522Z,6.80
2023-04-29T03:31:37.508Z,6.80
2023-04-29T03:36:41.515Z,6.82
2023-04-29T03:41:47.050Z,6.84
2023-04-29T03:46:50.744Z,6.86
2023-04-29T03:51:54.844Z,6.88
2023-04-29T03:56:58.641Z,6.89
2023-04-29T04:02:02.940Z,6.83
2023-04-29T04:07:07.075Z,6.83
2023-04-29T04:12:10.720Z,6.89
2023-04-29T04:17:14.664Z,6.94
2023-04-29T04:22:18.587Z,6.99
2023-04-29T04:27:22.593Z,7.01
2023-04-29T04:32:26.693Z,7.01
2023-04-29T04:37:30.636Z,7.02
2023-04-29T04:42:34.699Z,7.00
2023-04-29T04:47:40.422Z,7.02
2023-04-29T04:52:44.156Z,7.09
2023-04-29T04:57:48.310Z,7.21
2023-04-29T05:02:52.342Z,7.31
2023-04-29T05:07:56.790Z,7.39
2023-04-29T05:13:00.742Z,7.45
2023-04-29T05:18:04.855Z,7.47
2023-04-29T05:23:09.898Z,7.52
2023-04-29T05:28:13.730Z,7.57
2023-04-29T05:33:17.508Z,7.59
2023-04-29T05:38:22.488Z,7.62
2023-04-29T05:43:27.345Z,7.63
2023-04-29T05:48:31.366Z,7.64
2023-04-29T05:53:37.883Z,7.71
2023-04-29T05:58:41.754Z,7.86
2023-04-29T06:03:46.106Z,8.02
2023-04-29T06:08:50.762Z,8.18
2023-04-29T06:13:55.071Z,8.30
2023-04-29T06:18:59.092Z,8.41
2023-04-29T06:24:03.129Z,8.53
2023-04-29T06:29:06.742Z,8.64
2023-04-29T06:34:10.970Z,8.73
2023-04-29T06:39:15.304Z,8.85
2023-04-29T06:44:19.411Z,9.02
2023-04-29T06:49:23.158Z,9.24
2023-04-29T06:54:28.209Z,9.44
2023-04-29T06:59:32.886Z,9.64
2023-04-29T07:04:37.112Z,9.86
2023-04-29T07:09:40.901Z,10.05
2023-04-29T07:14:44.701Z,10.19
2023-04-29T07:19:48.348Z,10.33
2023-04-29T07:24:54.920Z,10.43
2023-04-29T07:30:01.241Z,10.57
2023-04-29T07:35:06.672Z,10.72
2023-04-29T07:40:11.762Z,10.95
2023-04-29T07:45:15.917Z,11.27
2023-04-29T07:50:19.892Z,11.63
2023-04-29T07:55:23.614Z,11.97
2023-04-29T08:00:28.046Z,12.28
2023-04-29T08:05:32.182Z,12.55
2023-04-29T08:10:40.520Z,12.76
2023-04-29T08:15:44.424Z,13.04
2023-04-29T08:20:49.372Z,13.21
2023-04-29T08:25:54.865Z,13.34
2023-04-29T08:30:59.076Z,13.49
2023-04-29T08:36:03.484Z,13.65
2023-04-29T08:41:09.400Z,13.79
2023-04-29T08:46:13.688Z,13.87
2023-04-29T08:51:17.557Z,13.98
2023-04-29T08:56:24.949Z,14.10
2023-04-29T09:01:31.373Z,14.25
2023-04-29T09:06:35.356Z,14.42
2023-04-29T09:11:39.593Z,14.57
2023-04-29T09:16:46.034Z,14.63
2023-04-29T09:21:56.113Z,14.77
2023-04-29T09:27:00.500Z,14.91
2023-04-29T09:32:20.584Z,15.03
2023-04-29T09:37:28.447Z,15.10
2023-04-29T09:42:43.396Z,14.99
2023-04-29T09:48:01.385Z,14.87
2023-04-29T09:53:08.496Z,14.96
2023-04-29T09:58:34.609Z,15.12
2023-04-29T10:03:39.634Z,15.25
2023-04-29T10:08:46.190Z,15.26
2023-04-29T10:13:51.784Z,15.32
2023-04-29T10:18:57.037Z,15.49
2023-04-29T10:24:03.652Z,15.65
2023-04-29T10:29:09.761Z,15.76
2023-04-29T10:34:13.833Z,15.77
2023-04-29T10:39:36.517Z,15.70
2023-04-29T10:45:23.119Z,15.63
2023-04-29T10:50:29.108Z,15.64
2023-04-29T10:55:35.844Z,15.62
2023-04-29T11:00:39.652Z,15.65
2023-04-29T11:05:45.910Z,15.73
2023-04-29T11:10:52.198Z,15.81
2023-04-29T11:16:04.027Z,15.75
2023-04-29T11:21:13.986Z,15.69
2023-04-29T11:26:21.033Z,15.57
2023-04-29T11:31:30.324Z,15.49
2023-04-29T11:36:34.824Z,15.34
2023-04-29T11:41:39.221Z,15.18
2023-04-29T11:46:42.912Z,15.12
2023-04-29T11:51:50.988Z,15.18
2023-04-29T11:57:03.639Z,15.18
2023-04-29T12:02:11.628Z,15.22
2023-04-29T12:07:16.956Z,15.23
2023-04-29T12:12:20.870Z,15.21
2023-04-29T12:17:25.854Z,15.24
2023-04-29T12:22:33.272Z,15.24
2023-04-29T12:27:39.631Z,15.28
2023-04-29T12:32:43.461Z,15.36
2023-04-29T12:37:50.281Z,15.38
2023-04-29T12:42:54.450Z,15.44
2023-04-29T12:47:59.357Z,15.46
2023-04-29T12:53:04.593Z,15.51
2023-04-29T12:58:09.221Z,15.56
2023-04-29T13:03:17.110Z,15.59
2023-04-29T13:08:22.410Z,15.61
2023-04-29T13:13:27.122Z,15.55
2023-04-29T13:18:31.574Z,15.46
2023-04-29T13:23:35.448Z,15.40
2023-04-29T13:28:39.469Z,15.33
2023-04-29T13:33:43.683Z,15.28
2023-04-29T13:38:50.827Z,15.22
2023-04-29T13:44:02.077Z,15.15
2023-04-29T13:49:31.275Z,15.09
2023-04-29T13:59:45.531Z,14.96
2023-04-29T14:04:55.353Z,14.91
2023-04-29T14:09:59.318Z,14.89
2023-04-29T14:15:03.380Z,14.88
2023-04-29T14:20:09.888Z,14.86
2023-04-29T14:25:13.724Z,14.84
2023-04-29T14:30:17.744Z,14.82
2023-04-29T14:35:21.579Z,14.79
2023-04-29T14:40:25.584Z,14.77
2023-04-29T14:45:30.116Z,14.74
2023-04-29T14:50:33.938Z,14.71
2023-04-29T14:55:37.666Z,14.67
2023-04-29T15:00:41.497Z,14.64
2023-04-29T15:05:45.522Z,14.59
2023-04-29T15:10:49.547Z,14.57
2023-04-29T15:15:53.595Z,14.54
2023-04-29T15:20:57.763Z,14.51
2023-04-29T15:26:01.629Z,14.49
2023-04-29T15:31:05.655Z,14.51
2023-04-29T15:36:09.478Z,14.53
2023-04-29T15:41:13.594Z,14.57
2023-04-29T15:46:17.549Z,14.64
2023-04-29T15:51:21.747Z,14.70
2023-04-29T15:56:26.008Z,14.73
2023-04-29T16:01:30.647Z,14.73
2023-04-29T16:06:34.485Z,14.72
2023-04-29T16:11:38.374Z,14.71
2023-04-29T16:16:42.401Z,14.68
2023-04-29T16:21:46.752Z,14.64
2023-04-29T16:26:51.177Z,14.58
2023-04-29T16:31:55.108Z,14.53
2023-04-29T16:36:58.909Z,14.49
2023-04-29T16:42:03.315Z,14.46
2023-04-29T16:47:07.076Z,14.43
2023-04-29T16:52:12.282Z,14.40
2023-04-29T16:57:16.920Z,14.36
2023-04-29T17:02:22.067Z,14.33
2023-04-29T17:07:26.148Z,14.31
2023-04-29T17:12:30.080Z,14.26
2023-04-29T17:17:34.492Z,14.24
2023-04-29T17:22:40.062Z,14.19
2023-04-29T17:27:45.874Z,14.15
2023-04-29T17:32:50.116Z,14.06
2023-04-29T17:37:53.934Z,13.95
2023-04-29T17:42:57.613Z,13.78
2023-04-29T17:48:01.569Z,13.41
2023-04-29T17:53:05.415Z,13.02
2023-04-29T17:58:09.162Z,12.78
2023-04-29T18:03:13.086Z,12.62
2023-04-29T18:08:17.029Z,12.58
2023-04-29T18:13:20.803Z,12.63
2023-04-29T18:18:25.661Z,12.71
2023-04-29T18:23:29.592Z,12.71
2023-04-29T18:28:33.594Z,12.58
2023-04-29T18:33:37.625Z,12.52
2023-04-29T18:38:41.818Z,12.53
2023-04-29T18:43:45.579Z,12.45
2023-04-29T18:48:49.634Z,12.18
2023-04-29T18:53:53.389Z,11.93
2023-04-29T18:58:57.356Z,11.71
2023-04-29T19:04:04.036Z,11.56
2023-04-29T19:09:07.993Z,11.51
2023-04-29T19:14:11.749Z,11.56
2023-04-29T19:19:15.705Z,11.58
2023-04-29T19:24:20.066Z,11.60
2023-04-29T19:29:24.198Z,11.59
2023-04-29T19:34:28.125Z,11.66
2023-04-29T19:39:32.063Z,11.78
2023-04-29T19:49:35.831Z,11.92
2023-04-29T19:54:40.442Z,11.93
2023-04-29T19:59:44.400Z,11.95
2023-04-29T20:04:48.825Z,11.97
2023-04-29T20:09:52.902Z,12.00
2023-04-29T20:14:57.383Z,12.04
2023-04-29T20:20:02.145Z,12.05
2023-04-29T20:25:07.776Z,12.01
2023-04-29T20:30:12.231Z,11.96
2023-04-29T20:35:16.274Z,11.96
2023-04-29T20:40:20.789Z,11.95
2023-04-29T20:45:25.401Z,11.95
2023-04-29T20:50:29.591Z,11.95
2023-04-29T20:55:33.401Z,11.93
2023-04-29T21:00:37.934Z,11.88
2023-04-29T21:05:42.091Z,11.87
2023-04-29T21:10:46.203Z,11.89
2023-04-29T21:15:50.466Z,11.89
2023-04-29T21:20:54.813Z,11.88
2023-04-29T21:25:59.725Z,11.87
2023-04-29T21:31:04.343Z,11.86
2023-04-29T21:36:08.724Z,11.87
2023-04-29T21:41:20.501Z,11.87
2023-04-29T21:46:24.653Z,11.82
2023-04-29T21:51:29.410Z,11.77
2023-04-29T21:56:33.422Z,11.77
2023-04-29T22:01:47.861Z,11.78
2023-04-29T22:06:52.259Z,11.73
2023-04-29T22:11:56.188Z,11.62
2023-04-29T22:17:00.707Z,11.54
2023-04-29T22:22:05.399Z,11.52
2023-04-29T22:27:09.573Z,11.52
2023-04-29T22:32:13.548Z,11.54
2023-04-29T22:37:17.942Z,11.52
2023-04-29T22:42:21.846Z,11.48
2023-04-29T22:47:26.398Z,11.44
2023-04-29T22:52:32.287Z,11.40
2023-04-29T22:57:36.409Z,11.36
2023-04-29T23:02:40.798Z,11.34
2023-04-29T23:07:47.377Z,11.32
2023-04-29T23:12:52.271Z,11.29
2023-04-29T23:17:56.628Z,11.28
2023-04-29T23:23:01.053Z,11.29
2023-04-29T23:28:05.738Z,11.26
2023-04-29T23:33:09.647Z,11.22
2023-04-29T23:38:13.544Z,11.19
2023-04-29T23:43:19.002Z,11.16
2023-04-29T23:48:23.014Z,11.10
2023-04-29T23:53:27.264Z,11.05
2023-04-29T23:58:33.455Z,11.03
